Time;durP1;ratioP1;P1;durP2;ratioP2;P2;SDS_P1;SDS_P2;PMS_P1;PMS_P2;Temp;Humidity;BMP_temperature;BMP_pressure;BME280_temperature;BME280_humidity;BME280_pressure;Samples;Min_cycle;Max_cycle;Signal;HPM_P1;HPM_P2
2022/05/30 00:02:07;;;;;;;2.95;1.65;;;;;;;;;;5045755;28;20037;-54
2022/05/30 00:04:36;;;;;;;2.20;1.60;;;;;;;;;;5045941;28;20060;-55
2022/05/30 00:07:02;;;;;;;2.95;1.60;;;;;;;;;;5052275;28;20033;-54
2022/05/30 00:09:28;;;;;;;1.45;1.35;;;;;;;;;;5047308;28;20124;-54
2022/05/30 00:11:54;;;;;;;2.50;1.48;;;;;;;;;;5044828;28;20025;-55
2022/05/30 00:14:20;;;;;;;5.22;1.52;;;;;;;;;;5045023;28;20021;-54
2022/05/30 00:16:46;;;;;;;1.80;1.40;;;;;;;;;;5048221;28;20033;-53
2022/05/30 00:19:12;;;;;;;2.58;1.90;;;;;;;;;;5053149;28;20087;-54
2022/05/30 00:21:38;;;;;;;3.80;1.67;;;;;;;;;;5054853;28;20388;-53
2022/05/30 00:24:04;;;;;;;2.38;1.50;;;;;;;;;;5049519;28;20049;-53
2022/05/30 00:26:30;;;;;;;2.00;1.38;;;;;;;;;;5046685;28;20041;-52
2022/05/30 00:28:56;;;;;;;2.20;1.30;;;;;;;;;;5041183;28;20036;-54
2022/05/30 00:31:22;;;;;;;3.28;2.00;;;;;;;;;;5044048;28;20030;-55
2022/05/30 00:33:49;;;;;;;3.03;1.85;;;;;;;;;;5044467;28;20025;-55
2022/05/30 00:36:15;;;;;;;3.50;2.00;;;;;;;;;;5048925;28;20388;-54
2022/05/30 00:38:41;;;;;;;3.05;1.83;;;;;;;;;;5040460;28;20040;-52
2022/05/30 00:41:07;;;;;;;2.70;1.50;;;;;;;;;;5050252;28;20094;-53
2022/05/30 00:43:37;;;;;;;3.47;2.00;;;;;;;;;;5037725;28;20028;-53
2022/05/30 00:46:07;;;;;;;2.70;1.63;;;;;;;;;;5040603;28;20052;-54
2022/05/30 00:48:39;;;;;;;2.78;2.03;;;;;;;;;;5040024;28;20036;-54
2022/05/30 00:51:10;;;;;;;2.88;1.73;;;;;;;;;;5041952;28;20021;-54
2022/05/30 00:53:38;;;;;;;1.60;1.50;;;;;;;;;;5048279;28;20083;-53
2022/05/30 00:56:05;;;;;;;3.22;1.75;;;;;;;;;;5041256;28;20036;-55
2022/05/30 00:58:32;;;;;;;3.38;1.73;;;;;;;;;;5048517;28;20013;-53
2022/05/30 01:00:59;;;;;;;2.42;1.90;;;;;;;;;;5048304;28;20063;-54
2022/05/30 01:08:55;;;;;;;3.25;1.77;;;;;;;;;;5046525;28;20064;-53
2022/05/30 01:11:21;;;;;;;2.88;2.03;;;;;;;;;;5043244;28;20117;-53
2022/05/30 01:13:47;;;;;;;3.10;2.22;;;;;;;;;;5048420;28;20128;-55
2022/05/30 01:16:13;;;;;;;2.67;1.70;;;;;;;;;;5037563;28;20022;-52
2022/05/30 01:18:42;;;;;;;2.38;1.73;;;;;;;;;;5049423;28;20020;-54
2022/05/30 01:21:27;;;;;;;3.33;2.03;;;;;;;;;;5036205;28;20032;-55
2022/05/30 01:24:18;;;;;;;2.70;1.88;;;;;;;;;;5045181;28;20104;-53
2022/05/30 01:26:52;;;;;;;2.58;1.85;;;;;;;;;;5047924;28;20028;-55
2022/05/30 01:29:26;;;;;;;2.00;1.80;;;;;;;;;;5045547;28;20041;-51
2022/05/30 01:31:54;;;;;;;2.85;1.70;;;;;;;;;;5035032;28;20484;-53
2022/05/30 01:34:23;;;;;;;2.78;1.95;;;;;;;;;;5050178;28;20508;-55
2022/05/30 01:36:50;;;;;;;2.85;1.92;;;;;;;;;;5049946;28;20025;-55
2022/05/30 01:39:16;;;;;;;6.55;2.15;;;;;;;;;;5048550;28;20507;-54
2022/05/30 01:41:42;;;;;;;2.47;1.67;;;;;;;;;;5051013;28;20054;-54
2022/05/30 01:44:08;;;;;;;2.70;1.80;;;;;;;;;;5035219;28;20498;-55
2022/05/30 01:46:34;;;;;;;4.38;2.00;;;;;;;;;;5047459;28;20464;-53
2022/05/30 01:49:00;;;;;;;3.10;1.90;;;;;;;;;;5038363;28;20040;-52
2022/05/30 01:51:26;;;;;;;4.10;2.15;;;;;;;;;;5047853;28;20040;-54
2022/05/30 01:53:52;;;;;;;3.00;1.90;;;;;;;;;;5047308;28;20039;-54
2022/05/30 01:56:19;;;;;;;2.30;1.70;;;;;;;;;;5051487;28;20025;-53
2022/05/30 01:58:46;;;;;;;2.65;2.13;;;;;;;;;;5048441;28;20031;-54
2022/05/30 02:01:20;;;;;;;3.00;2.10;;;;;;;;;;5048015;28;20139;-55
2022/05/30 02:03:46;;;;;;;2.63;1.98;;;;;;;;;;5047926;28;20025;-53
2022/05/30 02:06:12;;;;;;;3.75;2.00;;;;;;;;;;5047292;28;20595;-53
2022/05/30 02:08:38;;;;;;;3.92;1.75;;;;;;;;;;5046761;28;20052;-55
2022/05/30 02:11:04;;;;;;;3.55;1.95;;;;;;;;;;5031568;28;20108;-55
2022/05/30 02:13:30;;;;;;;3.75;1.85;;;;;;;;;;5038429;28;20041;-55
2022/05/30 02:18:41;;;;;;;2.38;1.80;;;;;;;;;;5043265;28;20504;-55
2022/05/30 02:21:07;;;;;;;2.72;1.92;;;;;;;;;;5048373;28;20037;-55
2022/05/30 02:23:33;;;;;;;3.75;2.35;;;;;;;;;;5051899;28;20032;-56
2022/05/30 02:25:59;;;;;;;3.00;2.03;;;;;;;;;;5048581;28;20082;-55
2022/05/30 02:28:26;;;;;;;3.35;2.20;;;;;;;;;;5037948;28;20488;-55
2022/05/30 02:30:52;;;;;;;4.65;2.53;;;;;;;;;;5048777;28;20037;-56
2022/05/30 02:38:48;;;;;;;3.55;2.83;;;;;;;;;;5037288;28;20515;-54
2022/05/30 02:41:14;;;;;;;5.30;2.60;;;;;;;;;;5049109;28;20104;-56
2022/05/30 02:43:40;;;;;;;4.18;2.60;;;;;;;;;;5049077;28;20033;-56
2022/05/30 02:46:06;;;;;;;6.43;2.78;;;;;;;;;;5049293;28;20075;-53
2022/05/30 02:48:32;;;;;;;5.82;3.03;;;;;;;;;;5041500;28;20511;-53
2022/05/30 02:50:58;;;;;;;5.45;2.88;;;;;;;;;;5045474;28;20030;-53
2022/05/30 02:53:24;;;;;;;6.68;3.33;;;;;;;;;;5049889;28;20036;-53
2022/05/30 02:55:50;;;;;;;6.15;3.10;;;;;;;;;;5054091;28;20029;-53
2022/05/30 02:58:16;;;;;;;5.43;2.70;;;;;;;;;;5039316;28;20022;-53
2022/05/30 03:00:42;;;;;;;4.75;3.13;;;;;;;;;;5044511;28;20434;-55
2022/05/30 03:03:08;;;;;;;5.72;2.88;;;;;;;;;;5049527;28;20457;-52
2022/05/30 03:05:34;;;;;;;8.43;3.25;;;;;;;;;;5045153;28;20029;-55
2022/05/30 03:08:03;;;;;;;6.82;3.58;;;;;;;;;;5050625;28;20052;-55
2022/05/30 03:10:29;;;;;;;6.38;2.88;;;;;;;;;;5052945;28;20445;-53
2022/05/30 03:12:55;;;;;;;7.65;3.65;;;;;;;;;;5037792;28;20078;-54
2022/05/30 03:15:21;;;;;;;5.45;3.05;;;;;;;;;;5040136;28;20025;-56
2022/05/30 03:17:48;;;;;;;7.90;2.92;;;;;;;;;;5044754;28;20025;-55
2022/05/30 03:20:14;;;;;;;7.75;4.00;;;;;;;;;;5026324;28;20040;-55
2022/05/30 03:22:40;;;;;;;8.07;3.60;;;;;;;;;;5050827;28;20029;-53
2022/05/30 03:25:06;;;;;;;10.05;4.40;;;;;;;;;;5047709;28;20037;-56
2022/05/30 03:27:32;;;;;;;13.55;3.40;;;;;;;;;;5044824;28;20413;-55
2022/05/30 03:29:58;;;;;;;7.57;3.38;;;;;;;;;;5039857;28;20041;-55
2022/05/30 03:32:24;;;;;;;7.07;3.40;;;;;;;;;;5052761;28;20036;-55
2022/05/30 03:34:50;;;;;;;6.72;3.42;;;;;;;;;;5047196;28;20025;-55
2022/05/30 03:37:16;;;;;;;6.03;3.30;;;;;;;;;;5047028;28;20378;-55
2022/05/30 03:39:42;;;;;;;5.85;3.25;;;;;;;;;;5047094;28;20393;-55
2022/05/30 03:42:13;;;;;;;6.15;3.65;;;;;;;;;;5049954;28;20378;-55
2022/05/30 03:44:39;;;;;;;6.60;3.67;;;;;;;;;;5048675;28;20033;-56
2022/05/30 03:47:05;;;;;;;7.07;4.00;;;;;;;;;;5051119;28;20078;-55
2022/05/30 03:49:31;;;;;;;5.07;3.20;;;;;;;;;;5041818;28;20022;-56
2022/05/30 03:51:58;;;;;;;8.48;3.58;;;;;;;;;;5052027;28;20032;-56
2022/05/30 03:54:24;;;;;;;6.43;3.08;;;;;;;;;;5046922;28;20078;-54
2022/05/30 03:56:50;;;;;;;6.22;3.67;;;;;;;;;;5050229;28;20404;-55
2022/05/30 03:59:16;;;;;;;11.90;3.47;;;;;;;;;;5049883;28;20033;-56
2022/05/30 04:01:42;;;;;;;4.55;2.92;;;;;;;;;;5047591;28;20083;-55
2022/05/30 04:04:08;;;;;;;6.25;3.33;;;;;;;;;;5050980;28;20025;-56
2022/05/30 04:06:35;;;;;;;5.05;3.15;;;;;;;;;;5050526;28;20033;-55
2022/05/30 04:09:01;;;;;;;9.88;3.60;;;;;;;;;;5042594;28;20041;-55
2022/05/30 04:11:27;;;;;;;6.97;2.80;;;;;;;;;;5041398;28;20027;-54
2022/05/30 04:13:53;;;;;;;7.45;3.13;;;;;;;;;;5047084;28;20029;-54
2022/05/30 04:16:19;;;;;;;9.80;3.00;;;;;;;;;;5049493;28;20075;-53
2022/05/30 04:18:45;;;;;;;13.43;2.95;;;;;;;;;;5045904;28;20100;-53
2022/05/30 04:21:12;;;;;;;9.23;3.00;;;;;;;;;;5046193;28;20444;-53
2022/05/30 04:23:40;;;;;;;5.78;2.85;;;;;;;;;;5035210;28;20025;-54
2022/05/30 04:26:07;;;;;;;9.57;2.67;;;;;;;;;;5039782;28;20021;-56
2022/05/30 04:28:33;;;;;;;9.05;3.08;;;;;;;;;;5042242;28;20402;-55
2022/05/30 04:31:00;;;;;;;5.88;2.72;;;;;;;;;;5040725;28;20028;-55
2022/05/30 04:33:27;;;;;;;10.32;3.33;;;;;;;;;;5041616;28;20075;-55
2022/05/30 04:35:53;;;;;;;5.85;2.55;;;;;;;;;;5039469;28;20037;-56
2022/05/30 04:38:19;;;;;;;7.10;2.78;;;;;;;;;;5047312;28;20029;-52
2022/05/30 04:40:45;;;;;;;8.75;2.83;;;;;;;;;;5047659;28;20026;-56
2022/05/30 04:43:11;;;;;;;11.85;3.08;;;;;;;;;;5043403;28;20033;-56
2022/05/30 04:45:37;;;;;;;8.88;2.80;;;;;;;;;;5036901;28;20040;-53
2022/05/30 04:48:03;;;;;;;8.45;2.97;;;;;;;;;;5037464;28;20099;-53
2022/05/30 04:50:29;;;;;;;13.80;3.00;;;;;;;;;;5033451;28;20104;-55
2022/05/30 04:52:55;;;;;;;9.38;2.65;;;;;;;;;;5039727;28;20021;-53
2022/05/30 04:55:21;;;;;;;4.70;2.10;;;;;;;;;;5041208;28;20025;-52
2022/05/30 04:57:48;;;;;;;9.07;2.45;;;;;;;;;;5036607;28;20469;-54
2022/05/30 05:00:15;;;;;;;6.10;2.80;;;;;;;;;;5046817;28;20029;-54
2022/05/30 05:02:42;;;;;;;10.00;2.47;;;;;;;;;;5043434;28;20093;-55
2022/05/30 05:05:08;;;;;;;6.95;2.92;;;;;;;;;;5042629;28;20030;-55
2022/05/30 05:07:40;;;;;;;9.20;2.60;;;;;;;;;;5037649;28;20109;-54
2022/05/30 05:10:25;;;;;;;6.22;2.72;;;;;;;;;;5036646;28;20033;-55
2022/05/30 05:12:51;;;;;;;5.68;2.30;;;;;;;;;;5041152;28;20460;-54
2022/05/30 05:15:17;;;;;;;11.98;2.40;;;;;;;;;;5038777;28;20026;-55
2022/05/30 05:17:43;;;;;;;9.57;3.10;;;;;;;;;;5035637;28;20054;-54
2022/05/30 05:20:09;;;;;;;11.00;2.58;;;;;;;;;;5028138;28;22051;-56
2022/05/30 05:22:35;;;;;;;6.28;2.53;;;;;;;;;;5034574;28;20037;-55
2022/05/30 05:25:01;;;;;;;12.18;2.50;;;;;;;;;;5048757;28;20029;-55
2022/05/30 05:27:27;;;;;;;9.65;2.38;;;;;;;;;;5044766;28;20029;-55
2022/05/30 05:29:54;;;;;;;6.63;2.60;;;;;;;;;;5034830;28;20037;-54
2022/05/30 05:32:20;;;;;;;8.10;2.22;;;;;;;;;;5034778;28;20029;-54
2022/05/30 05:34:50;;;;;;;8.00;2.65;;;;;;;;;;5032664;28;20025;-55
2022/05/30 05:37:16;;;;;;;11.23;2.72;;;;;;;;;;5047942;28;20026;-55
2022/05/30 05:39:42;;;;;;;10.80;2.85;;;;;;;;;;5042979;28;20021;-53
2022/05/30 05:42:08;;;;;;;8.05;2.60;;;;;;;;;;5039188;28;20029;-54
2022/05/30 05:44:34;;;;;;;8.20;2.92;;;;;;;;;;5040771;28;20025;-54
2022/05/30 05:47:00;;;;;;;5.70;2.33;;;;;;;;;;5048447;28;20071;-56
2022/05/30 05:49:26;;;;;;;11.02;2.97;;;;;;;;;;5038730;28;20033;-56
2022/05/30 05:51:55;;;;;;;6.95;2.50;;;;;;;;;;5047886;28;20100;-54
2022/05/30 05:54:25;;;;;;;5.10;2.78;;;;;;;;;;5047425;28;20465;-56
2022/05/30 05:56:51;;;;;;;5.80;2.40;;;;;;;;;;5041056;28;20049;-56
2022/05/30 05:59:18;;;;;;;9.45;2.15;;;;;;;;;;5040765;28;20041;-56
2022/05/30 06:01:44;;;;;;;7.55;2.35;;;;;;;;;;5042504;28;20033;-57
2022/05/30 06:04:11;;;;;;;13.20;2.55;;;;;;;;;;5035975;28;20033;-56
2022/05/30 06:06:37;;;;;;;6.00;2.55;;;;;;;;;;5045117;28;20459;-57
2022/05/30 06:09:04;;;;;;;8.25;2.42;;;;;;;;;;5039786;28;20063;-56
2022/05/30 06:11:31;;;;;;;8.85;3.22;;;;;;;;;;5038421;28;20026;-57
2022/05/30 06:13:57;;;;;;;5.50;2.75;;;;;;;;;;5039687;28;20056;-55
2022/05/30 06:16:34;;;;;;;6.03;2.65;;;;;;;;;;5037352;28;20025;-57
2022/05/30 06:19:01;;;;;;;9.43;2.80;;;;;;;;;;5040371;28;20396;-56
2022/05/30 06:21:29;;;;;;;11.15;2.40;;;;;;;;;;5045836;28;20033;-55
2022/05/30 06:23:55;;;;;;;13.95;2.75;;;;;;;;;;5036939;28;20496;-57
2022/05/30 06:26:22;;;;;;;10.63;3.25;;;;;;;;;;5047045;28;20029;-56
2022/05/30 06:28:48;;;;;;;9.88;3.13;;;;;;;;;;5047097;28;20397;-57
2022/05/30 06:31:16;;;;;;;8.88;2.72;;;;;;;;;;5038187;28;20027;-56
2022/05/30 06:33:42;;;;;;;11.88;2.85;;;;;;;;;;5042786;28;20095;-56
2022/05/30 06:36:09;;;;;;;10.38;3.63;;;;;;;;;;5053828;28;20105;-56
2022/05/30 06:38:36;;;;;;;14.70;2.80;;;;;;;;;;5047650;28;20577;-56
2022/05/30 06:41:09;;;;;;;7.30;2.83;;;;;;;;;;5034323;28;20503;-57
2022/05/30 06:43:35;;;;;;;7.70;3.08;;;;;;;;;;5041974;28;20823;-56
2022/05/30 06:46:02;;;;;;;10.73;2.58;;;;;;;;;;5045896;28;20033;-57
2022/05/30 06:48:28;;;;;;;10.98;2.55;;;;;;;;;;5042865;28;20037;-56
2022/05/30 06:50:54;;;;;;;7.50;2.50;;;;;;;;;;5047278;28;20028;-56
2022/05/30 06:53:20;;;;;;;10.18;2.55;;;;;;;;;;5048831;28;20030;-55
2022/05/30 06:55:50;;;;;;;9.60;3.28;;;;;;;;;;5038569;28;20124;-57
2022/05/30 06:58:19;;;;;;;18.13;3.15;;;;;;;;;;5051021;28;20056;-56
2022/05/30 07:00:47;;;;;;;11.65;3.40;;;;;;;;;;5048908;28;20590;-56
2022/05/30 07:03:14;;;;;;;8.63;2.88;;;;;;;;;;5043515;28;20442;-57
2022/05/30 07:05:41;;;;;;;12.80;3.67;;;;;;;;;;5052218;28;20064;-56
2022/05/30 07:08:07;;;;;;;8.25;2.80;;;;;;;;;;5044675;28;20041;-57
2022/05/30 07:10:35;;;;;;;10.48;3.10;;;;;;;;;;5047862;28;20059;-57
2022/05/30 07:13:01;;;;;;;8.13;2.70;;;;;;;;;;5048983;28;20519;-54
2022/05/30 07:15:27;;;;;;;13.95;3.22;;;;;;;;;;5042513;28;20029;-55
2022/05/30 07:17:54;;;;;;;8.23;3.08;;;;;;;;;;5051083;28;20044;-56
2022/05/30 07:20:20;;;;;;;16.70;3.22;;;;;;;;;;5047095;28;20032;-56
2022/05/30 07:22:46;;;;;;;8.95;2.30;;;;;;;;;;5043157;28;20106;-56
2022/05/30 07:25:12;;;;;;;10.35;3.70;;;;;;;;;;5045815;28;20030;-57
2022/05/30 07:27:38;;;;;;;8.15;2.63;;;;;;;;;;5042467;28;20084;-55
2022/05/30 07:30:05;;;;;;;8.15;3.15;;;;;;;;;;5049897;28;20167;-56
2022/05/30 07:32:33;;;;;;;6.75;3.03;;;;;;;;;;5042162;28;20032;-55
2022/05/30 07:34:59;;;;;;;5.05;2.42;;;;;;;;;;5041652;28;20021;-56
2022/05/30 07:37:25;;;;;;;7.53;3.13;;;;;;;;;;5044775;28;20025;-57
2022/05/30 07:39:51;;;;;;;6.82;3.22;;;;;;;;;;5045708;28;20545;-56
2022/05/30 07:42:17;;;;;;;6.70;2.72;;;;;;;;;;5046934;28;20037;-56
2022/05/30 07:44:43;;;;;;;8.77;3.00;;;;;;;;;;5049945;28;20515;-56
2022/05/30 07:47:11;;;;;;;5.45;2.75;;;;;;;;;;5046692;28;20033;-57
2022/05/30 07:49:37;;;;;;;8.10;2.38;;;;;;;;;;5037052;28;20024;-56
2022/05/30 07:52:04;;;;;;;5.28;2.13;;;;;;;;;;5048244;28;20029;-57
2022/05/30 07:54:30;;;;;;;6.82;2.13;;;;;;;;;;5037185;28;20406;-56
2022/05/30 07:56:56;;;;;;;7.38;1.90;;;;;;;;;;5050195;28;20029;-57
2022/05/30 07:59:22;;;;;;;7.68;2.50;;;;;;;;;;5047183;28;20043;-55
2022/05/30 08:01:48;;;;;;;11.60;2.63;;;;;;;;;;5046606;28;20033;-57
2022/05/30 08:04:15;;;;;;;8.48;2.28;;;;;;;;;;5052211;28;20037;-56
2022/05/30 08:06:41;;;;;;;3.58;1.63;;;;;;;;;;5043152;28;20029;-57
2022/05/30 08:09:07;;;;;;;9.05;1.75;;;;;;;;;;5051274;28;20029;-56
2022/05/30 08:11:33;;;;;;;4.55;1.55;;;;;;;;;;5043560;28;20086;-57
2022/05/30 08:13:59;;;;;;;5.55;1.55;;;;;;;;;;5049792;28;20037;-57
2022/05/30 08:16:26;;;;;;;4.63;2.00;;;;;;;;;;5047026;28;20025;-57
2022/05/30 08:18:52;;;;;;;7.88;2.50;;;;;;;;;;5049571;28;20525;-56
2022/05/30 08:21:19;;;;;;;6.85;1.40;;;;;;;;;;5041136;28;20025;-56
2022/05/30 08:23:45;;;;;;;9.43;2.22;;;;;;;;;;5049862;28;20097;-57
2022/05/30 08:26:15;;;;;;;6.32;1.52;;;;;;;;;;5042881;28;20025;-55
2022/05/30 08:28:41;;;;;;;4.88;1.52;;;;;;;;;;5041087;28;20036;-56
2022/05/30 08:31:09;;;;;;;4.82;1.17;;;;;;;;;;5035439;28;20423;-56
2022/05/30 08:33:34;;;;;;;8.43;1.38;;;;;;;;;;5042121;28;20017;-57
2022/05/30 08:36:02;;;;;;;3.90;1.83;;;;;;;;;;5046119;28;20033;-57
2022/05/30 08:38:33;;;;;;;4.32;1.60;;;;;;;;;;5038980;28;20113;-57
2022/05/30 08:43:44;;;;;;;9.32;1.65;;;;;;;;;;5044526;28;20083;-56
2022/05/30 08:46:12;;;;;;;4.43;1.27;;;;;;;;;;5049785;28;20032;-56
2022/05/30 08:49:09;;;;;;;7.80;1.20;;;;;;;;;;5040749;28;20389;-55
2022/05/30 08:51:35;;;;;;;4.47;1.20;;;;;;;;;;5019399;28;20427;-57
2022/05/30 08:54:15;;;;;;;2.63;0.82;;;;;;;;;;5048823;28;20028;-56
2022/05/30 08:56:43;;;;;;;2.72;1.27;;;;;;;;;;5049677;28;20098;-56
2022/05/30 08:59:29;;;;;;;3.53;1.20;;;;;;;;;;5051013;28;20108;-58
2022/05/30 09:02:20;;;;;;;3.40;1.08;;;;;;;;;;5039757;28;20056;-57
2022/05/30 09:04:52;;;;;;;4.50;1.00;;;;;;;;;;5044411;28;20075;-57
2022/05/30 09:07:24;;;;;;;3.22;1.10;;;;;;;;;;5043850;28;20059;-57
2022/05/30 09:09:55;;;;;;;7.68;1.45;;;;;;;;;;5043999;28;20037;-56
2022/05/30 09:12:40;;;;;;;1.60;0.68;;;;;;;;;;5043932;28;20029;-56
2022/05/30 09:15:11;;;;;;;4.10;1.05;;;;;;;;;;5041619;28;20442;-57
2022/05/30 09:17:43;;;;;;;4.18;0.90;;;;;;;;;;5045778;28;20057;-57
2022/05/30 09:20:11;;;;;;;3.50;0.63;;;;;;;;;;5042630;28;20029;-57
2022/05/30 09:22:38;;;;;;;7.90;0.98;;;;;;;;;;5038807;28;20036;-54
2022/05/30 09:27:49;;;;;;;4.28;1.23;;;;;;;;;;5048966;28;20087;-55
2022/05/30 09:30:17;;;;;;;1.98;0.60;;;;;;;;;;5034587;28;20036;-56
2022/05/30 09:32:46;;;;;;;2.22;0.70;;;;;;;;;;5041259;28;20025;-56
2022/05/30 09:35:41;;;;;;;3.72;0.88;;;;;;;;;;5043534;28;20443;-56
2022/05/30 09:38:07;;;;;;;3.45;0.80;;;;;;;;;;5044626;28;20106;-56
2022/05/30 09:40:43;;;;;;;1.20;0.60;;;;;;;;;;5048097;28;20040;-56
2022/05/30 09:43:11;;;;;;;3.35;0.80;;;;;;;;;;5042783;28;20120;-53
2022/05/30 09:45:37;;;;;;;1.33;0.52;;;;;;;;;;5046378;28;20460;-56
2022/05/30 09:48:05;;;;;;;2.00;0.50;;;;;;;;;;5030435;28;20044;-56
2022/05/30 09:50:32;;;;;;;1.67;0.45;;;;;;;;;;5037886;28;20495;-57
2022/05/30 09:52:58;;;;;;;2.05;0.65;;;;;;;;;;5048799;28;20041;-56
2022/05/30 09:55:24;;;;;;;1.98;0.60;;;;;;;;;;5049502;28;20028;-57
2022/05/30 09:57:50;;;;;;;2.10;0.68;;;;;;;;;;5047374;28;20017;-56
2022/05/30 10:00:18;;;;;;;2.47;1.02;;;;;;;;;;5050646;28;20097;-53
2022/05/30 10:02:45;;;;;;;2.15;0.63;;;;;;;;;;5044066;28;20047;-56
2022/05/30 10:05:14;;;;;;;1.13;0.52;;;;;;;;;;5045437;28;20493;-56
2022/05/30 10:07:51;;;;;;;2.17;0.73;;;;;;;;;;5051127;28;20467;-57
2022/05/30 10:10:25;;;;;;;3.85;0.90;;;;;;;;;;5045152;28;20033;-56
2022/05/30 10:12:56;;;;;;;2.65;0.70;;;;;;;;;;5047163;28;20028;-56
2022/05/30 10:15:30;;;;;;;3.75;1.00;;;;;;;;;;5047166;28;20033;-53
2022/05/30 10:17:58;;;;;;;2.28;0.63;;;;;;;;;;5053198;28;20025;-55
2022/05/30 10:20:31;;;;;;;4.32;0.50;;;;;;;;;;5051801;28;20025;-56
2022/05/30 10:28:57;;;;;;;2.13;0.60;;;;;;;;;;5044032;28;20044;-57
2022/05/30 10:31:46;;;;;;;3.60;0.63;;;;;;;;;;5040432;28;20037;-57
2022/05/30 10:34:19;;;;;;;1.40;0.50;;;;;;;;;;5049893;28;20770;-56
2022/05/30 10:37:01;;;;;;;8.35;1.02;;;;;;;;;;5049626;28;20038;-58
2022/05/30 10:39:36;;;;;;;4.60;0.73;;;;;;;;;;5050257;28;20075;-56
2022/05/30 10:42:04;;;;;;;0.70;0.45;;;;;;;;;;5047427;28;20029;-56
2022/05/30 10:44:35;;;;;;;1.40;0.40;;;;;;;;;;5044792;28;20047;-57
2022/05/30 10:47:19;;;;;;;1.58;0.70;;;;;;;;;;5046931;28;20571;-57
2022/05/30 10:49:48;;;;;;;2.15;0.95;;;;;;;;;;5044317;28;20483;-57
2022/05/30 10:52:33;;;;;;;1.90;0.60;;;;;;;;;;5042100;28;20033;-57
2022/05/30 10:55:07;;;;;;;2.92;0.60;;;;;;;;;;5039783;28;20034;-55
2022/05/30 10:58:02;;;;;;;2.08;0.60;;;;;;;;;;5035697;28;20779;-55
2022/05/30 11:00:36;;;;;;;11.13;1.80;;;;;;;;;;5028466;28;20056;-58
2022/05/30 11:03:22;;;;;;;3.67;0.80;;;;;;;;;;5045115;28;20044;-56
2022/05/30 11:05:52;;;;;;;3.30;0.85;;;;;;;;;;5041246;28;20547;-57
2022/05/30 11:08:33;;;;;;;4.20;0.88;;;;;;;;;;5048714;28;20045;-57
2022/05/30 11:11:19;;;;;;;4.28;0.70;;;;;;;;;;5043027;28;20060;-57
2022/05/30 11:14:01;;;;;;;2.45;0.60;;;;;;;;;;5041336;28;20444;-57
2022/05/30 11:16:36;;;;;;;3.65;0.82;;;;;;;;;;5044917;28;20048;-56
2022/05/30 11:19:12;;;;;;;4.18;0.60;;;;;;;;;;5048396;28;20031;-57
2022/05/30 11:21:46;;;;;;;3.35;0.68;;;;;;;;;;5038569;28;20036;-57
2022/05/30 11:24:12;;;;;;;2.47;1.05;;;;;;;;;;5044778;28;20025;-56
2022/05/30 11:26:58;;;;;;;4.53;0.80;;;;;;;;;;5043477;28;20053;-57
2022/05/30 11:29:28;;;;;;;2.70;0.60;;;;;;;;;;5038752;28;20413;-55
2022/05/30 11:32:02;;;;;;;1.20;0.50;;;;;;;;;;5045779;28;20087;-56
2022/05/30 11:34:36;;;;;;;7.22;1.02;;;;;;;;;;5040270;28;20064;-57
2022/05/30 11:37:14;;;;;;;1.70;0.65;;;;;;;;;;5045459;28;20427;-57
2022/05/30 11:39:59;;;;;;;1.05;0.63;;;;;;;;;;5035610;28;20022;-56
2022/05/30 11:42:32;;;;;;;3.65;0.90;;;;;;;;;;5033817;28;20038;-57
2022/05/30 11:44:59;;;;;;;5.25;0.77;;;;;;;;;;5032759;28;20056;-56
2022/05/30 11:47:25;;;;;;;3.92;0.68;;;;;;;;;;5046953;28;20044;-56
2022/05/30 11:50:08;;;;;;;4.22;0.90;;;;;;;;;;5048597;28;20037;-57
2022/05/30 11:52:42;;;;;;;2.90;0.93;;;;;;;;;;5039237;28;20033;-57
2022/05/30 11:55:08;;;;;;;;;;;;;;;;;;5040509;28;20029;-53
2022/05/30 11:57:36;;;;;;;2.55;1.33;;;;;;;;;;5037600;28;19917;-56
2022/05/30 12:00:07;;;;;;;4.18;0.95;;;;;;;;;;5039024;28;20029;-55
2022/05/30 12:02:47;;;;;;;5.45;0.95;;;;;;;;;;5039679;28;20056;-57
2022/05/30 12:05:25;;;;;;;2.42;1.02;;;;;;;;;;5036235;28;20037;-56
2022/05/30 12:08:02;;;;;;;3.50;0.85;;;;;;;;;;5049149;28;20473;-56
2022/05/30 12:10:31;;;;;;;3.22;0.80;;;;;;;;;;5041605;28;20062;-57
2022/05/30 12:12:57;;;;;;;2.78;0.57;;;;;;;;;;5047935;28;20107;-57
2022/05/30 12:15:52;;;;;;;4.28;0.90;;;;;;;;;;5035257;28;20036;-56
2022/05/30 12:24:21;;;;;;;5.90;0.80;;;;;;;;;;5032591;28;20028;-57
2022/05/30 12:26:54;;;;;;;2.35;0.88;;;;;;;;;;5050954;28;20526;-58
2022/05/30 12:29:38;;;;;;;2.08;0.52;;;;;;;;;;5045108;28;20472;-58
2022/05/30 12:32:16;;;;;;;0.98;0.57;;;;;;;;;;5042185;28;20483;-58
2022/05/30 12:35:00;;;;;;;2.35;0.88;;;;;;;;;;5042298;28;20100;-57
2022/05/30 12:37:41;;;;;;;3.42;0.77;;;;;;;;;;5038093;28;20115;-57
2022/05/30 12:40:11;;;;;;;2.42;0.60;;;;;;;;;;5035342;28;20025;-57
2022/05/30 12:42:42;;;;;;;1.63;0.77;;;;;;;;;;5042510;28;20086;-57
2022/05/30 12:45:34;;;;;;;3.03;0.85;;;;;;;;;;5044649;28;20075;-57
2022/05/30 12:48:02;;;;;;;2.67;0.70;;;;;;;;;;5010966;28;20063;-56
2022/05/30 12:50:31;;;;;;;2.30;0.63;;;;;;;;;;5042381;28;20033;-56
2022/05/30 12:52:59;;;;;;;3.47;0.73;;;;;;;;;;5035922;28;20059;-56
2022/05/30 12:55:33;;;;;;;2.10;0.70;;;;;;;;;;5043220;28;20094;-57
2022/05/30 12:57:59;;;;;;;2.75;0.70;;;;;;;;;;5042501;28;20021;-57
2022/05/30 13:00:25;;;;;;;2.60;0.47;;;;;;;;;;5045091;28;20358;-57
2022/05/30 13:02:56;;;;;;;0.98;0.45;;;;;;;;;;5036295;28;20083;-57
2022/05/30 13:05:25;;;;;;;2.08;0.50;;;;;;;;;;5043826;28;20514;-57
2022/05/30 13:07:51;;;;;;;1.55;0.40;;;;;;;;;;5040070;28;20041;-56
2022/05/30 13:10:17;;;;;;;2.30;0.65;;;;;;;;;;5042077;28;20447;-56
2022/05/30 13:12:52;;;;;;;2.65;0.65;;;;;;;;;;5037806;28;20402;-57
2022/05/30 13:15:25;;;;;;;2.30;0.57;;;;;;;;;;5025829;28;20044;-56
2022/05/30 13:18:01;;;;;;;0.82;0.35;;;;;;;;;;5024599;28;20107;-57
2022/05/30 13:20:37;;;;;;;0.73;0.30;;;;;;;;;;5033301;28;20534;-57
2022/05/30 13:23:04;;;;;;;4.13;0.38;;;;;;;;;;5039174;28;20075;-58
2022/05/30 13:25:32;;;;;;;2.35;0.65;;;;;;;;;;5035171;28;20031;-57
2022/05/30 13:28:09;;;;;;;0.73;0.30;;;;;;;;;;5037813;28;20028;-57
2022/05/30 13:30:36;;;;;;;2.28;0.55;;;;;;;;;;5039210;28;20117;-57
2022/05/30 13:33:10;;;;;;;3.90;0.43;;;;;;;;;;5028816;28;20025;-57
2022/05/30 13:35:37;;;;;;;3.00;0.68;;;;;;;;;;5033709;28;20457;-58
2022/05/30 13:38:05;;;;;;;1.10;0.35;;;;;;;;;;5047043;28;20057;-57
2022/05/30 13:40:32;;;;;;;1.63;0.50;;;;;;;;;;5047526;28;20083;-57
2022/05/30 13:43:00;;;;;;;2.83;0.60;;;;;;;;;;5043273;28;20032;-57
2022/05/30 13:45:30;;;;;;;3.42;0.63;;;;;;;;;;5035700;28;20039;-57
2022/05/30 13:48:04;;;;;;;1.27;0.47;;;;;;;;;;5038391;28;20029;-57
2022/05/30 13:50:50;;;;;;;1.48;0.50;;;;;;;;;;5046120;28;20501;-55
2022/05/30 13:53:19;;;;;;;2.60;0.70;;;;;;;;;;5049189;28;20028;-55
2022/05/30 13:55:56;;;;;;;1.67;0.50;;;;;;;;;;5039311;28;20029;-56
2022/05/30 13:58:23;;;;;;;1.20;0.50;;;;;;;;;;5032758;28;20485;-56
2022/05/30 14:00:49;;;;;;;2.08;0.50;;;;;;;;;;5047499;28;20084;-57
2022/05/30 14:03:16;;;;;;;0.60;0.30;;;;;;;;;;5029162;28;20036;-56
2022/05/30 14:05:44;;;;;;;1.02;0.50;;;;;;;;;;5044325;28;20029;-56
2022/05/30 14:08:30;;;;;;;1.88;0.70;;;;;;;;;;5043035;28;20053;-56
2022/05/30 14:11:00;;;;;;;1.25;0.52;;;;;;;;;;5023436;28;20029;-55
2022/05/30 14:13:32;;;;;;;3.92;0.52;;;;;;;;;;5035788;28;20125;-56
2022/05/30 14:15:59;;;;;;;2.78;0.60;;;;;;;;;;5024684;28;20068;-54
2022/05/30 14:18:26;;;;;;;0.65;0.45;;;;;;;;;;5027625;28;20062;-56
2022/05/30 14:20:53;;;;;;;2.22;0.75;;;;;;;;;;5027145;28;20044;-56
2022/05/30 14:23:19;;;;;;;1.40;0.65;;;;;;;;;;5034789;28;20029;-57
2022/05/30 14:25:55;;;;;;;0.85;0.43;;;;;;;;;;5046418;28;20036;-56
2022/05/30 14:28:29;;;;;;;2.80;0.57;;;;;;;;;;5040305;28;20108;-57
2022/05/30 14:31:00;;;;;;;3.50;0.80;;;;;;;;;;5035981;28;20404;-57
2022/05/30 14:33:26;;;;;;;1.63;0.68;;;;;;;;;;5033385;28;20029;-57
2022/05/30 14:35:53;;;;;;;1.75;0.50;;;;;;;;;;5038033;28;20029;-57
2022/05/30 14:38:28;;;;;;;1.50;0.47;;;;;;;;;;5040523;28;20036;-57
2022/05/30 14:41:00;;;;;;;2.83;0.70;;;;;;;;;;5043296;28;20032;-55
2022/05/30 14:43:30;;;;;;;3.90;0.80;;;;;;;;;;5032524;28;20100;-55
2022/05/30 14:46:01;;;;;;;1.30;0.65;;;;;;;;;;5043430;28;20670;-56
2022/05/30 14:48:29;;;;;;;4.78;0.85;;;;;;;;;;5032884;28;20098;-56
2022/05/30 14:50:56;;;;;;;3.95;0.98;;;;;;;;;;5041219;28;20503;-56
2022/05/30 14:53:24;;;;;;;1.38;0.70;;;;;;;;;;5032341;28;20572;-56
2022/05/30 14:55:52;;;;;;;1.67;0.50;;;;;;;;;;5044483;28;20057;-56
2022/05/30 14:58:19;;;;;;;1.77;0.68;;;;;;;;;;5044843;28;20022;-54
2022/05/30 15:00:56;;;;;;;2.78;0.75;;;;;;;;;;5046246;28;20036;-56
2022/05/30 15:06:08;;;;;;;3.22;0.70;;;;;;;;;;5042116;28;20082;-57
2022/05/30 15:08:34;;;;;;;1.75;0.60;;;;;;;;;;5061256;28;20117;-54
2022/05/30 15:11:15;;;;;;;3.78;0.90;;;;;;;;;;5058260;28;20062;-56
2022/05/30 15:13:49;;;;;;;2.33;0.50;;;;;;;;;;5046060;28;20060;-56
2022/05/30 15:16:15;;;;;;;5.38;0.80;;;;;;;;;;5053889;28;20035;-56
2022/05/30 15:18:41;;;;;;;3.90;0.70;;;;;;;;;;5069237;28;20047;-56
2022/05/30 15:21:08;;;;;;;1.75;0.60;;;;;;;;;;5050066;28;20037;-56
2022/05/30 15:23:34;;;;;;;3.08;0.50;;;;;;;;;;5045725;28;20052;-56
2022/05/30 15:26:00;;;;;;;4.40;0.70;;;;;;;;;;5050394;28;20139;-56
2022/05/30 15:28:26;;;;;;;2.15;0.82;;;;;;;;;;5045625;28;20033;-56
2022/05/30 15:30:52;;;;;;;1.15;0.77;;;;;;;;;;5057708;28;20074;-56